| time (UTC) | temp C | wind direction | speed KPH | gust KPH | rain 1hr cm | rain 24hr cm | rain mn cm | humidity % | barometer mb |
| 20260906120033 | 21 | 65 | 6.4 | 14.5 | 0.00 | 0.00 | 0.00 | 89 | 1015.6 |
| 20260906114516 | 21 | 96 | 4.8 | 11.3 | 0.00 | 0.00 | 0.00 | 89 | 1015.3 |
| 20260906113028 | 21 | 106 | 4.8 | 11.3 | 0.00 | 0.00 | 0.00 | 90 | 1015.0 |
| 20260906111557 | 22 | 48 | 4.8 | 14.5 | 0.00 | 0.00 | 0.00 | 90 | 1014.8 |
| 20260906110020 | 22 | 39 | 9.7 | 19.3 | 0.00 | 0.00 | 0.00 | 90 | 1014.8 |
| 20260906104513 | 22 | 47 | 8.0 | 16.1 | 0.00 | 0.00 | 0.00 | 89 | 1014.6 |
| 20260906103045 | 22 | 61 | 4.8 | 9.7 | 0.00 | 0.00 | 0.00 | 88 | 1014.5 |
| 20260906101530 | 22 | 19 | 6.4 | 12.9 | 0.00 | 0.00 | 0.00 | 88 | 1014.3 |
| 20260906100037 | 22 | 32 | 8.0 | 14.5 | 0.00 | 0.00 | 0.00 | 88 | 1014.1 |
| 20260906094518 | 22 | 44 | 9.7 | 16.1 | 0.00 | 0.00 | 0.00 | 89 | 1014.1 |
| 20260906093033 | 22 | 40 | 3.2 | 12.9 | 0.00 | 0.00 | 0.00 | 89 | 1014.1 |
| 20260906091601 | 22 | 22 | 4.8 | 11.3 | 0.00 | 0.00 | 0.00 | 89 | 1014.1 |
| 20260906090018 | 22 | 36 | 3.2 | 9.7 | 0.00 | 0.00 | 0.00 | 89 | 1014.1 |
| 20260906084549 | 22 | 50 | 6.4 | 14.5 | 0.00 | 0.00 | 0.00 | 89 | 1014.3 |
| 20260906083021 | 22 | 41 | 6.4 | 9.7 | 0.00 | 0.00 | 0.00 | 89 | 1014.3 |
| 20260906081529 | 22 | 335 | 3.2 | 9.7 | 0.00 | 0.00 | 0.00 | 89 | 1014.4 |
| 20260906080021 | 22 | 47 | 6.4 | 9.7 | 0.00 | 0.00 | 0.00 | 89 | 1014.3 |
| 20260906074554 | 22 | 36 | 4.8 | 9.7 | 0.00 | 0.00 | 0.00 | 89 | 1014.3 |
| 20260906073030 | 22 | 19 | 6.4 | 11.3 | 0.00 | 0.00 | 0.00 | 89 | 1014.3 |
| 20260906071522 | 22 | 51 | 4.8 | 16.1 | 0.00 | 0.00 | 0.00 | 89 | 1014.2 |
| 20260906070035 | 22 | 42 | 8.0 | 17.7 | 0.00 | 0.00 | 0.00 | 89 | 1014.3 |
| 20260906064516 | 22 | 57 | 8.0 | 17.7 | 0.00 | 0.00 | 0.00 | 89 | 1014.5 |
| 20260906063022 | 22 | 26 | 8.0 | 19.3 | 0.00 | 0.00 | 0.00 | 89 | 1014.6 |
| 20260906061546 | 22 | 46 | 4.8 | 11.3 | 0.00 | 0.00 | 0.00 | 89 | 1014.5 |
| 20260906060017 | 21 | 92 | 11.3 | 20.9 | 0.00 | 0.00 | 0.00 | 89 | 1014.7 |
| 20260906054528 | 22 | 9 | 6.4 | 14.5 | 0.00 | 0.00 | 0.00 | 89 | 1014.5 |
| 20260906053037 | 22 | 43 | 8.0 | 14.5 | 0.00 | 0.00 | 0.00 | 89 | 1014.3 |
| 20260906051523 | 22 | 109 | 9.7 | 19.3 | 0.00 | 0.00 | 0.00 | 89 | 1014.2 |
| 20260906050047 | 22 | 360 | 9.7 | 16.1 | 0.00 | 0.00 | 0.00 | 89 | 1014.0 |
| 20260906044550 | 22 | 54 | 3.2 | 9.7 | 0.00 | 0.00 | 0.00 | 89 | 1014.0 |
| 20260906043014 | 22 | 41 | 3.2 | 9.7 | 0.00 | 0.00 | 0.00 | 89 | 1013.8 |
| 20260906041541 | 22 | 59 | 3.2 | 14.5 | 0.00 | 0.00 | 0.00 | 89 | 1013.8 |
| 20260906040020 | 23 | 75 | 4.8 | 16.1 | 0.00 | 0.00 | 0.00 | 88 | 1013.6 |
| 20260906034524 | 23 | 97 | 6.4 | 17.7 | 0.00 | 0.00 | 0.00 | 88 | 1013.5 |
| 20260906033033 | 23 | 28 | 8.0 | 19.3 | 0.00 | 0.00 | 0.00 | 88 | 1013.5 |
| 20260906031513 | 23 | 36 | 8.0 | 20.9 | 0.00 | 0.00 | 0.00 | 87 | 1013.4 |
| 20260906030024 | 24 | 29 | 11.3 | 19.3 | 0.00 | 0.00 | 0.00 | 86 | 1013.3 |
| 20260906024532 | 25 | 97 | 9.7 | 20.9 | 0.00 | 0.00 | 0.00 | 86 | 1013.3 |
| 20260906023017 | 25 | 82 | 4.8 | 14.5 | 0.00 | 0.00 | 0.00 | 85 | 1013.0 |
| 20260906021545 | 25 | 32 | 14.5 | 25.7 | 0.00 | 0.00 | 0.00 | 84 | 1013.1 |
| 20260906020015 | 26 | 93 | 8.0 | 19.3 | 0.00 | 0.00 | 0.00 | 85 | 1012.9 |
| 20260906014544 | 26 | 39 | 9.7 | 20.9 | 0.00 | 0.00 | 0.00 | 83 | 1012.6 |
| 20260906013030 | 27 | 96 | 11.3 | 20.9 | 0.00 | 0.00 | 0.00 | 82 | 1012.3 |
| 20260906011513 | 27 | 16 | 11.3 | 27.4 | 0.00 | 0.00 | 0.00 | 81 | 1012.2 |
| 20260906010045 | 28 | 23 | 9.7 | 22.5 | 0.00 | 0.00 | 0.00 | 82 | 1012.1 |
| 20260906004538 | 28 | 353 | 8.0 | 17.7 | 0.00 | 0.00 | 0.00 | 82 | 1011.7 |
| 20260906003019 | 29 | 4 | 8.0 | 16.1 | 0.00 | 0.00 | 0.00 | 79 | 1011.4 |
| 20260906001523 | 29 | 39 | 4.8 | 12.9 | 0.00 | 0.00 | 0.00 | 79 | 1011.3 |
| 20260906000033 | 29 | 28 | 3.2 | 14.5 | 0.00 | 0.00 | 0.00 | 79 | 1011.5 |
| 20260905234518 | 30 | 32 | 1.6 | 6.4 | 0.00 | 0.00 | 0.00 | 79 | 1011.4 |
| 20260905233032 | 30 | 51 | 3.2 | 9.7 | 0.00 | 0.00 | 0.00 | 77 | 1011.4 |
| 20260905231555 | 31 | 339 | 1.6 | 12.9 | 0.00 | 0.00 | 0.00 | 75 | 1011.3 |
| 20260905230030 | 31 | 16 | 3.2 | 9.7 | 0.00 | 0.00 | 0.00 | 75 | 1011.2 |
| 20260905224520 | 31 | 39 | 1.6 | 14.5 | 0.00 | 0.00 | 0.00 | 76 | 1011.1 |
| 20260905223033 | 31 | 26 | 3.2 | 11.3 | 0.00 | 0.00 | 0.00 | 73 | 1011.1 |
| 20260905221517 | 32 | 305 | 1.6 | 8.0 | 0.00 | 0.00 | 0.00 | 75 | 1011.1 |
| 20260905220045 | 32 | 34 | 3.2 | 14.5 | 0.00 | 0.00 | 0.00 | 74 | 1011.1 |
| 20260905214534 | 32 | 34 | 3.2 | 14.5 | 0.00 | 0.00 | 0.00 | 75 | 1011.0 |
| 20260905213022 | 32 | 40 | 1.6 | 6.4 | 0.00 | 0.00 | 0.00 | 74 | 1011.1 |
| 20260905211532 | 32 | 297 | 1.6 | 4.8 | 0.00 | 0.00 | 0.00 | 74 | 1011.2 |
| 20260905210014 | 32 | 303 | 0.0 | 8.0 | 0.00 | 0.00 | 0.00 | 75 | 1011.3 |
| 20260905204528 | 32 | 41 | 3.2 | 8.0 | 0.00 | 0.00 | 0.00 | 72 | 1011.4 |
| 20260905203029 | 32 | 64 | 6.4 | 14.5 | 0.00 | 0.00 | 0.00 | 70 | 1011.4 |
| 20260905201517 | 32 | 124 | 1.6 | 9.7 | 0.00 | 0.00 | 0.00 | 68 | 1011.3 |
| 20260905200026 | 32 | 22 | 4.8 | 17.7 | 0.00 | 0.00 | 0.00 | 70 | 1011.4 |
| 20260905194517 | 33 | 309 | 1.6 | 9.7 | 0.00 | 0.00 | 0.00 | 69 | 1011.4 |
| 20260905193031 | 33 | 285 | 1.6 | 8.0 | 0.00 | 0.00 | 0.00 | 68 | 1011.5 |
| 20260905191541 | 33 | 349 | 0.0 | 8.0 | 0.00 | 0.00 | 0.00 | 70 | 1011.7 |
| 20260905190031 | 33 | 320 | 1.6 | 9.7 | 0.00 | 0.00 | 0.00 | 68 | 1011.8 |
| 20260905184523 | 33 | 277 | 1.6 | 8.0 | 0.00 | 0.00 | 0.00 | 69 | 1012.0 |
| 20260905183032 | 33 | 294 | 1.6 | 8.0 | 0.00 | 0.00 | 0.00 | 67 | 1012.0 |
| 20260905181527 | 33 | 119 | 3.2 | 8.0 | 0.00 | 0.00 | 0.00 | 67 | 1012.1 |
| 20260905180038 | 33 | 274 | 1.6 | 6.4 | 0.00 | 0.00 | 0.00 | 68 | 1012.3 |
| 20260905174518 | 33 | 269 | 0.0 | 3.2 | 0.00 | 0.00 | 0.00 | 67 | 1012.4 |
| 20260905173029 | 33 | 271 | 1.6 | 4.8 | 0.00 | 0.00 | 0.00 | 67 | 1012.4 |
| 20260905171558 | 33 | 295 | 1.6 | 8.0 | 0.00 | 0.00 | 0.00 | 69 | 1012.4 |
| 20260905170022 | 33 | 358 | 3.2 | 9.7 | 0.00 | 0.00 | 0.00 | 67 | 1012.5 |
| 20260905164527 | 33 | 277 | 1.6 | 8.0 | 0.00 | 0.00 | 0.00 | 70 | 1012.7 |
| 20260905163022 | 33 | 210 | 1.6 | 6.4 | 0.00 | 0.00 | 0.00 | 68 | 1012.6 |
| 20260905161550 | 33 | 201 | 1.6 | 4.8 | 0.00 | 0.00 | 0.00 | 69 | 1012.7 |
| 20260905160041 | 33 | 201 | 0.0 | 0.0 | 0.00 | 0.00 | 0.00 | 72 | 1012.7 |
| 20260905154525 | 33 | 202 | 0.0 | 0.0 | 0.00 | 0.00 | 0.00 | 69 | 1012.6 |
| 20260905153018 | 32 | 201 | 0.0 | 0.0 | 0.00 | 0.00 | 0.00 | 71 | 1012.7 |
| 20260905151529 | 32 | 201 | 0.0 | 0.0 | 0.00 | 0.00 | 0.00 | 71 | 1012.6 |
| 20260905150024 | 32 | 201 | 0.0 | 0.0 | 0.00 | 0.00 | 0.00 | 73 | 1012.5 |
| 20260905144527 | 32 | 201 | 0.0 | 0.0 | 0.00 | 0.00 | 0.00 | 74 | 1012.3 |
| 20260905143031 | 31 | 201 | 0.0 | 0.0 | 0.00 | 0.00 | 0.00 | 76 | 1012.5 |
| 20260905141537 | 30 | 201 | 0.0 | 0.0 | 0.00 | 0.00 | 0.00 | 79 | 1012.4 |
| 20260905140016 | 29 | 201 | 0.0 | 0.0 | 0.00 | 0.00 | 0.00 | 80 | 1012.7 |
| 20260905134516 | 29 | 201 | 0.0 | 0.0 | 0.00 | 0.00 | 0.00 | 81 | 1012.6 |
| 20260905133045 | 28 | 201 | 0.0 | 0.0 | 0.00 | 0.00 | 0.00 | 85 | 1012.5 |
| 20260905131553 | 27 | 201 | 0.0 | 0.0 | 0.00 | 0.00 | 0.00 | 88 | 1012.5 |
| 20260905130023 | 26 | 201 | 0.0 | 0.0 | 0.00 | 0.00 | 0.00 | 88 | 1012.3 |
| 20260905124532 | 25 | 201 | 0.0 | 0.0 | 0.00 | 0.00 | 0.00 | 88 | 1012.3 |
| 20260905123025 | 25 | 201 | 0.0 | 0.0 | 0.00 | 0.00 | 0.00 | 89 | 1012.2 |
| 20260905121554 | 24 | 201 | 0.0 | 0.0 | 0.00 | 0.00 | 0.00 | 89 | 1012.1 |